createdAt,value
2019-03-05T00:01:30.725Z,98545.72
2019-03-05T00:04:35.951Z,98557.98
2019-03-05T00:07:41.041Z,98552.63
2019-03-05T00:10:46.175Z,98560.66
2019-03-05T00:13:51.395Z,98570.59
2019-03-05T00:16:56.501Z,98562.20
2019-03-05T00:20:02.719Z,98577.28
2019-03-05T00:23:08.395Z,98578.98
2019-03-05T00:26:13.796Z,98587.16
2019-03-05T00:29:45.149Z,98587.54
2019-03-05T00:32:57.013Z,98604.95
2019-03-05T00:36:38.060Z,98606.16
2019-03-05T00:40:24.328Z,98605.80
2019-03-05T00:44:02.567Z,98603.59
2019-03-05T00:47:30.948Z,98614.80
2019-03-05T00:51:04.242Z,98606.45
2019-03-05T00:55:11.561Z,98607.93
2019-03-05T00:58:32.866Z,98606.69
2019-03-05T01:02:09.013Z,98596.86
2019-03-05T01:05:58.527Z,98602.11
2019-03-05T01:09:05.903Z,98599.95
2019-03-05T01:12:14.226Z,98609.36
2019-03-05T01:15:19.381Z,98631.08
2019-03-05T01:18:24.490Z,98623.11
2019-03-05T01:21:29.594Z,98609.18
2019-03-05T01:24:34.731Z,98609.27
2019-03-05T01:27:39.812Z,98612.61
2019-03-05T01:31:10.280Z,98624.62
2019-03-05T01:34:35.985Z,98633.95
2019-03-05T01:37:41.223Z,98679.34
2019-03-05T01:40:50.658Z,98627.95
2019-03-05T01:43:55.735Z,98631.21
2019-03-05T01:47:00.881Z,98646.64
2019-03-05T01:50:07.060Z,98628.27
2019-03-05T01:53:13.704Z,98642.09
2019-03-05T01:56:18.846Z,98621.96
2019-03-05T01:59:24.023Z,98633.05
2019-03-05T02:02:29.165Z,98638.21
2019-03-05T02:05:34.275Z,98635.63
2019-03-05T02:08:39.366Z,98627.09
2019-03-05T02:11:44.637Z,98628.23
2019-03-05T02:14:49.743Z,98627.70
2019-03-05T02:17:54.853Z,98630.06
2019-03-05T02:20:59.965Z,98633.00
2019-03-05T02:24:35.050Z,98630.73
2019-03-05T02:27:54.166Z,98630.11
2019-03-05T02:31:39.512Z,98632.13
2019-03-05T02:35:00.574Z,98628.98
2019-03-05T02:38:18.271Z,98640.92
2019-03-05T02:41:31.924Z,98629.27
2019-03-05T02:44:56.117Z,98630.41
2019-03-05T02:48:42.336Z,98634.66
2019-03-05T02:52:28.279Z,98636.91
2019-03-05T02:56:14.144Z,98633.56
2019-03-05T02:59:17.537Z,98628.41
2019-03-05T03:02:56.853Z,98620.20
2019-03-05T03:06:06.649Z,98620.92
2019-03-05T03:09:46.943Z,98609.62
2019-03-05T03:12:52.201Z,98617.89
2019-03-05T03:15:57.419Z,98628.59
2019-03-05T03:19:02.544Z,98621.05
2019-03-05T03:22:07.647Z,98620.43
2019-03-05T03:25:15.160Z,98607.33
2019-03-05T03:28:20.280Z,98629.80
2019-03-05T03:31:25.537Z,98620.25
2019-03-05T03:34:30.588Z,98621.31
2019-03-05T03:37:35.699Z,98625.48
2019-03-05T03:40:40.818Z,98623.85
2019-03-05T03:43:45.988Z,98616.27
2019-03-05T03:46:51.142Z,98630.41
2019-03-05T03:49:56.222Z,98629.30
2019-03-05T03:53:01.402Z,98627.78
2019-03-05T03:56:06.580Z,98638.13
2019-03-05T03:59:11.700Z,98645.82
2019-03-05T04:02:16.779Z,98650.98
2019-03-05T04:05:21.899Z,98649.60
2019-03-05T04:08:26.970Z,98650.73
2019-03-05T04:11:32.203Z,98652.65
2019-03-05T04:14:37.443Z,98658.66
2019-03-05T04:17:42.567Z,98663.53
2019-03-05T04:20:53.807Z,98675.83
2019-03-05T04:23:58.980Z,98673.66
2019-03-05T04:27:04.098Z,98667.41
2019-03-05T04:30:10.985Z,98666.46
2019-03-05T04:33:16.361Z,98667.36
2019-03-05T04:36:21.498Z,98669.86
2019-03-05T04:39:26.612Z,98656.27
2019-03-05T04:42:31.748Z,98646.84
2019-03-05T04:45:46.022Z,98651.23
2019-03-05T04:49:10.092Z,98655.95
2019-03-05T04:52:17.889Z,98662.45
2019-03-05T04:55:23.119Z,98658.67
2019-03-05T04:58:28.219Z,98652.80
2019-03-05T05:01:33.292Z,98648.97
2019-03-05T05:04:38.381Z,98667.71
2019-03-05T05:07:43.492Z,98653.26
2019-03-05T05:10:48.630Z,98654.52
2019-03-05T05:13:53.754Z,98647.34
2019-03-05T05:16:58.851Z,98652.42
2019-03-05T05:20:04.292Z,98651.14
2019-03-05T05:23:09.467Z,98648.14
2019-03-05T05:26:14.649Z,98650.89
2019-03-05T05:29:19.805Z,98656.34
2019-03-05T05:32:24.948Z,98655.98
2019-03-05T05:35:30.378Z,98648.02
2019-03-05T05:38:35.484Z,98655.42
2019-03-05T05:41:41.634Z,98651.32
2019-03-05T05:44:46.836Z,98655.23
2019-03-05T05:47:51.975Z,98654.29
2019-03-05T05:50:57.243Z,98644.39
2019-03-05T05:54:02.373Z,98655.48
2019-03-05T05:57:07.516Z,98649.33
2019-03-05T06:00:14.657Z,98659.58
2019-03-05T06:03:19.794Z,98652.03
2019-03-05T06:06:24.896Z,98652.75
2019-03-05T06:09:30.067Z,98654.98
2019-03-05T06:12:35.154Z,98656.70
2019-03-05T06:15:40.269Z,98672.64
2019-03-05T06:18:45.383Z,98672.53
2019-03-05T06:21:50.534Z,98673.38
2019-03-05T06:24:55.655Z,98669.42
2019-03-05T06:28:00.796Z,98673.59
2019-03-05T06:31:06.046Z,98683.13
2019-03-05T06:34:11.183Z,98675.30
2019-03-05T06:37:16.314Z,98677.05
2019-03-05T06:40:21.528Z,98677.78
2019-03-05T06:43:26.602Z,98676.66
2019-03-05T06:46:31.816Z,98689.26
2019-03-05T06:49:36.926Z,98688.01
2019-03-05T06:52:42.139Z,98678.11
2019-03-05T06:55:47.356Z,98687.31
2019-03-05T06:58:52.543Z,98678.38
2019-03-05T07:01:57.690Z,98679.72
2019-03-05T07:05:02.802Z,98688.00
2019-03-05T07:08:08.005Z,98698.92
2019-03-05T07:11:38.500Z,98699.28
2019-03-05T07:15:05.701Z,98688.57
2019-03-05T07:18:18.580Z,98681.00
2019-03-05T07:21:52.973Z,98693.14
2019-03-05T07:24:58.144Z,98705.84
2019-03-05T07:28:03.286Z,98704.52
2019-03-05T07:31:08.409Z,98707.44
2019-03-05T07:34:21.471Z,98705.28
2019-03-05T07:37:26.622Z,98721.64
2019-03-05T07:40:31.864Z,98727.89
2019-03-05T07:43:37.347Z,98726.70
2019-03-05T07:46:42.825Z,98726.12
2019-03-05T07:49:48.164Z,98734.80
2019-03-05T07:52:53.662Z,98733.13
2019-03-05T07:55:59.182Z,98730.94
2019-03-05T07:59:04.721Z,98727.88
2019-03-05T08:02:10.282Z,98733.69
2019-03-05T08:05:17.210Z,98740.12
2019-03-05T08:08:58.086Z,98740.95
2019-03-05T08:12:47.076Z,98736.33
2019-03-05T08:16:36.599Z,98730.13
2019-03-05T08:19:42.181Z,98731.95
2019-03-05T08:22:47.891Z,98738.80
2019-03-05T08:25:53.346Z,98732.10
2019-03-05T08:28:58.835Z,98745.38
2019-03-05T08:32:04.030Z,98749.02
2019-03-05T08:35:10.502Z,98749.02
2019-03-05T08:38:15.757Z,98751.48
2019-03-05T08:41:21.301Z,98754.00
2019-03-05T08:44:27.026Z,98757.59
2019-03-05T08:47:32.296Z,98765.68
2019-03-05T08:50:37.525Z,98777.98
2019-03-05T08:53:49.397Z,98763.68
2019-03-05T08:56:49.550Z,98772.47
2019-03-05T08:59:54.718Z,98759.82
2019-03-05T09:02:59.887Z,98749.83
2019-03-05T09:06:05.245Z,98744.12
2019-03-05T09:09:12.511Z,98748.09
2019-03-05T09:12:19.210Z,98749.19
2019-03-05T09:15:24.395Z,98758.05
2019-03-05T09:18:29.474Z,98744.44
2019-03-05T09:21:34.627Z,98765.12
2019-03-05T09:24:39.757Z,98741.45
2019-03-05T09:27:44.991Z,98766.31
2019-03-05T09:30:50.173Z,98762.30
2019-03-05T09:33:55.439Z,98758.41
2019-03-05T09:37:01.734Z,98758.94
2019-03-05T09:40:10.271Z,98737.77
2019-03-05T09:43:15.423Z,98737.00
2019-03-05T09:46:20.671Z,98728.95
2019-03-05T09:49:25.955Z,98743.93
2019-03-05T09:52:31.129Z,98728.34
2019-03-05T09:55:37.344Z,98732.17
2019-03-05T09:58:42.468Z,98731.97
2019-03-05T10:01:49.266Z,98724.78
2019-03-05T10:04:54.502Z,98724.36
2019-03-05T10:07:59.710Z,98728.18
2019-03-05T10:11:05.044Z,98728.37
2019-03-05T10:14:10.270Z,98730.17
2019-03-05T10:17:15.487Z,98732.32
2019-03-05T10:20:21.674Z,98720.32
2019-03-05T10:23:26.875Z,98725.63
2019-03-05T10:26:31.991Z,98724.88
2019-03-05T10:29:37.196Z,98728.61
2019-03-05T10:32:42.467Z,98730.19
2019-03-05T10:35:47.683Z,98724.81
2019-03-05T10:38:57.230Z,98729.13
2019-03-05T10:42:00.114Z,98758.95
2019-03-05T10:45:06.983Z,98745.83
2019-03-05T10:48:12.496Z,98762.23
2019-03-05T10:51:17.580Z,98746.56
2019-03-05T10:54:22.773Z,98763.55
2019-03-05T10:57:27.875Z,98785.47
2019-03-05T11:00:36.257Z,98774.00
2019-03-05T11:03:41.435Z,98770.39
2019-03-05T11:06:46.748Z,98784.41
2019-03-05T11:09:53.566Z,98788.64
2019-03-05T11:12:59.488Z,98793.87
2019-03-05T11:16:04.848Z,98793.45
2019-03-05T11:19:10.308Z,98787.95
2019-03-05T11:22:15.692Z,98790.31
2019-03-05T11:25:21.778Z,98795.69
2019-03-05T11:28:26.968Z,98796.98
2019-03-05T11:31:32.324Z,98798.94
2019-03-05T11:34:37.474Z,98803.80
2019-03-05T11:37:42.644Z,98809.44
2019-03-05T11:40:47.828Z,98818.95
2019-03-05T11:43:53.000Z,98807.61
2019-03-05T11:46:58.145Z,98813.19
2019-03-05T11:50:03.270Z,98813.84
2019-03-05T11:53:09.259Z,98824.70
2019-03-05T11:56:14.523Z,98820.72
2019-03-05T11:59:19.607Z,98813.03
2019-03-05T12:02:24.759Z,98813.22
2019-03-05T12:05:29.961Z,98813.94
2019-03-05T12:08:35.114Z,98812.98
2019-03-05T12:11:40.185Z,98819.86
2019-03-05T12:14:45.394Z,98813.97
2019-03-05T12:17:50.666Z,98820.84
2019-03-05T12:20:57.459Z,98819.67
2019-03-05T12:24:02.708Z,98825.83
2019-03-05T12:27:07.913Z,98819.41
2019-03-05T12:30:16.452Z,98819.77
2019-03-05T12:33:21.636Z,98831.19
2019-03-05T12:36:26.757Z,98835.97
2019-03-05T12:39:31.879Z,98837.21
2019-03-05T12:42:37.124Z,98831.95
2019-03-05T12:45:42.364Z,98833.25
2019-03-05T12:48:47.505Z,98828.46
2019-03-05T12:51:52.665Z,98826.13
2019-03-05T12:54:57.859Z,98841.36
2019-03-05T12:58:03.046Z,98839.88
2019-03-05T13:01:08.915Z,98842.03
2019-03-05T13:04:14.103Z,98846.48
2019-03-05T13:07:19.301Z,98846.55
2019-03-05T13:10:24.480Z,98850.64
2019-03-05T13:13:29.578Z,98839.70
2019-03-05T13:16:35.243Z,98849.31
2019-03-05T13:19:44.432Z,98848.10
2019-03-05T13:22:49.864Z,98846.66
2019-03-05T13:25:54.996Z,98848.69
2019-03-05T13:29:00.114Z,98841.88
2019-03-05T13:32:05.503Z,98844.23
2019-03-05T13:35:14.148Z,98839.66
2019-03-05T13:38:19.106Z,98844.41
2019-03-05T13:41:24.228Z,98853.50
2019-03-05T13:44:34.293Z,98854.41
2019-03-05T13:47:43.018Z,98855.46
2019-03-05T13:51:32.587Z,98856.59
2019-03-05T13:55:15.851Z,98869.26
2019-03-05T13:58:53.243Z,98867.05
2019-03-05T14:01:58.496Z,98875.88
2019-03-05T14:05:48.612Z,98883.48
2019-03-05T14:09:15.775Z,98886.48
2019-03-05T14:12:20.935Z,98888.03
2019-03-05T14:15:26.175Z,98894.72
2019-03-05T14:18:31.371Z,98898.27
2019-03-05T14:21:36.723Z,98894.47
2019-03-05T14:24:41.862Z,98910.36
2019-03-05T14:27:47.006Z,98904.64
2019-03-05T14:30:52.169Z,98906.45
2019-03-05T14:33:57.278Z,98906.19
2019-03-05T14:37:02.500Z,98911.76
2019-03-05T14:40:23.488Z,98909.39
2019-03-05T14:43:19.495Z,98912.98
2019-03-05T14:46:24.705Z,98904.20
2019-03-05T14:49:30.089Z,98916.95
2019-03-05T14:52:35.227Z,98918.10
2019-03-05T14:55:40.420Z,98907.77
2019-03-05T14:58:45.606Z,98911.70
2019-03-05T15:01:50.714Z,98915.11
2019-03-05T15:04:55.919Z,98918.38
2019-03-05T15:08:01.099Z,98914.72
2019-03-05T15:11:06.372Z,98916.59
2019-03-05T15:14:11.527Z,98920.59
2019-03-05T15:17:16.636Z,98922.63
2019-03-05T15:20:21.873Z,98921.05
2019-03-05T15:23:27.010Z,98916.39
2019-03-05T15:26:33.105Z,98918.05
2019-03-05T15:29:38.163Z,98930.39
2019-03-05T15:32:43.371Z,98932.04
2019-03-05T15:35:48.512Z,98935.42
2019-03-05T15:38:53.672Z,98933.10
2019-03-05T15:41:58.910Z,98933.80
2019-03-05T15:45:04.655Z,98931.41
2019-03-05T15:48:09.878Z,98922.02
2019-03-05T15:51:15.138Z,98937.20
2019-03-05T15:54:20.307Z,98940.17
2019-03-05T15:57:26.384Z,98935.98
2019-03-05T16:00:31.852Z,98937.73
2019-03-05T16:03:36.976Z,98939.02
2019-03-05T16:06:42.096Z,98940.70
2019-03-05T16:09:47.218Z,98944.61
2019-03-05T16:12:52.336Z,98947.08
2019-03-05T16:15:57.521Z,98943.19
2019-03-05T16:19:02.691Z,98951.94
2019-03-05T16:22:07.942Z,98945.80
2019-03-05T16:25:14.854Z,98953.73
2019-03-05T16:28:20.191Z,98951.41
2019-03-05T16:31:51.275Z,98947.05
2019-03-05T16:35:24.658Z,98957.53
2019-03-05T16:39:00.988Z,98952.95
2019-03-05T16:42:42.136Z,98951.66
2019-03-05T16:46:02.426Z,98952.09
2019-03-05T16:49:29.835Z,98965.37
2019-03-05T16:52:51.087Z,98963.52
2019-03-05T16:56:22.794Z,98973.86
2019-03-05T16:59:49.920Z,98966.05
2019-03-05T17:03:03.852Z,98977.78
2019-03-05T17:06:26.755Z,98983.05
2019-03-05T17:09:49.593Z,98989.01
2019-03-05T17:12:55.053Z,98998.38
2019-03-05T17:16:00.226Z,99002.05
2019-03-05T17:19:05.489Z,99008.31
2019-03-05T17:22:10.753Z,99009.80
2019-03-05T17:25:17.442Z,99014.64
2019-03-05T17:28:22.739Z,99022.69
2019-03-05T17:31:28.147Z,99025.49
2019-03-05T17:34:33.386Z,99032.41
2019-03-05T17:37:40.156Z,99043.52
2019-03-05T17:40:45.366Z,99053.84
2019-03-05T17:43:50.604Z,99053.38
2019-03-05T17:46:56.082Z,99073.29
2019-03-05T17:50:01.523Z,99075.19
2019-03-05T17:53:07.074Z,99068.41
2019-03-05T17:56:12.324Z,99074.59
2019-03-05T17:59:17.779Z,99088.20
2019-03-05T18:02:23.060Z,99089.16
2019-03-05T18:05:28.402Z,99098.12
2019-03-05T18:08:33.598Z,99101.30
2019-03-05T18:11:38.818Z,99111.19
2019-03-05T18:14:44.387Z,99117.86
2019-03-05T18:17:49.562Z,99118.78
2019-03-05T18:20:54.748Z,99114.09
2019-03-05T18:23:59.988Z,99123.39
2019-03-05T18:27:05.261Z,99135.80
2019-03-05T18:30:14.756Z,99138.63
2019-03-05T18:33:20.239Z,99143.34
2019-03-05T18:36:25.468Z,99152.12
2019-03-05T18:39:30.704Z,99150.77
2019-03-05T18:42:36.170Z,99149.39
2019-03-05T18:45:41.434Z,99162.20
2019-03-05T18:48:46.817Z,99176.16
2019-03-05T18:51:51.980Z,99178.87
2019-03-05T18:54:57.451Z,99174.52
2019-03-05T18:58:02.564Z,99186.13
2019-03-05T19:01:09.778Z,99189.87
2019-03-05T19:04:15.039Z,99190.06
2019-03-05T19:07:23.256Z,99201.16
2019-03-05T19:10:29.677Z,99196.13
2019-03-05T19:13:34.869Z,99197.03
2019-03-05T19:16:40.292Z,99199.17
2019-03-05T19:19:45.632Z,99208.42
2019-03-05T19:22:50.927Z,99220.27
2019-03-05T19:25:56.147Z,99211.32
2019-03-05T19:29:01.462Z,99215.08
2019-03-05T19:32:06.763Z,99224.68
2019-03-05T19:35:12.903Z,99229.14
2019-03-05T19:38:18.167Z,99229.50
2019-03-05T19:41:23.363Z,99238.28
2019-03-05T19:44:29.063Z,99241.72
2019-03-05T19:47:34.293Z,99247.61
2019-03-05T19:50:39.567Z,99252.47
2019-03-05T19:53:44.956Z,99262.69
2019-03-05T19:56:50.203Z,99276.41
2019-03-05T19:59:55.368Z,99274.19
2019-03-05T20:03:00.522Z,99286.38
2019-03-05T20:06:05.937Z,99284.20
2019-03-05T20:09:13.097Z,99287.05
2019-03-05T20:12:18.504Z,99289.23
2019-03-05T20:15:23.828Z,99293.56
2019-03-05T20:18:31.730Z,99299.23
2019-03-05T20:21:36.904Z,99300.05
2019-03-05T20:24:42.136Z,99302.92
2019-03-05T20:27:48.965Z,99302.07
2019-03-05T20:30:54.286Z,99314.16
2019-03-05T20:33:59.603Z,99316.68
2019-03-05T20:37:04.950Z,99321.57
2019-03-05T20:40:12.342Z,99317.00
2019-03-05T20:43:18.185Z,99315.44
2019-03-05T20:46:26.154Z,99320.12
2019-03-05T20:49:31.545Z,99320.20
2019-03-05T20:52:38.004Z,99321.84
2019-03-05T20:55:43.467Z,99321.52
2019-03-05T20:58:48.697Z,99319.05
2019-03-05T21:01:54.050Z,99322.05
2019-03-05T21:04:59.417Z,99321.08
2019-03-05T21:08:06.599Z,99324.73
2019-03-05T21:11:11.959Z,99327.54
2019-03-05T21:14:17.247Z,99336.68
2019-03-05T21:17:22.557Z,99334.48
2019-03-05T21:20:27.699Z,99331.86
2019-03-05T21:23:32.900Z,99340.83
2019-03-05T21:26:38.132Z,99339.50
2019-03-05T21:29:43.498Z,99337.17
2019-03-05T21:32:48.830Z,99337.37
2019-03-05T21:35:54.047Z,99338.70
2019-03-05T21:38:59.278Z,99339.35
2019-03-05T21:42:04.574Z,99339.84
2019-03-05T21:45:10.975Z,99330.37
2019-03-05T21:48:16.293Z,99328.56
2019-03-05T21:51:21.840Z,99323.73
2019-03-05T21:54:27.136Z,99329.90
2019-03-05T21:57:32.437Z,99334.84
2019-03-05T22:00:37.849Z,99338.67
2019-03-05T22:03:43.082Z,99335.19
2019-03-05T22:06:48.394Z,99333.70
2019-03-05T22:09:54.781Z,99337.16
2019-03-05T22:12:59.976Z,99335.52
2019-03-05T22:16:06.526Z,99334.52
2019-03-05T22:19:11.791Z,99333.21
2019-03-05T22:22:16.987Z,99335.87
2019-03-05T22:25:22.326Z,99343.50
2019-03-05T22:28:27.637Z,99343.50
2019-03-05T22:31:32.899Z,99348.81
2019-03-05T22:34:38.125Z,99352.13
2019-03-05T22:37:43.345Z,99351.80
2019-03-05T22:40:48.568Z,99366.41
2019-03-05T22:43:54.037Z,99364.09
2019-03-05T22:46:59.323Z,99354.09
2019-03-05T22:50:05.268Z,99355.42
2019-03-05T22:53:10.724Z,99358.84
2019-03-05T22:56:16.013Z,99353.69
2019-03-05T22:59:21.172Z,99360.18
2019-03-05T23:02:26.360Z,99350.16
2019-03-05T23:05:32.456Z,99353.63
2019-03-05T23:08:37.803Z,99344.36
2019-03-05T23:11:42.919Z,99344.80
2019-03-05T23:14:48.219Z,99357.44
2019-03-05T23:17:53.795Z,99355.02
2019-03-05T23:20:59.398Z,99358.23
2019-03-05T23:24:04.751Z,99360.57
2019-03-05T23:27:10.581Z,99360.92
2019-03-05T23:30:16.954Z,99359.52
2019-03-05T23:33:22.182Z,99359.75
2019-03-05T23:36:27.391Z,99358.26
2019-03-05T23:39:32.706Z,99362.91
2019-03-05T23:42:37.897Z,99364.88
2019-03-05T23:45:43.106Z,99357.78
2019-03-05T23:48:48.851Z,99357.14
2019-03-05T23:51:54.252Z,99361.80
2019-03-05T23:54:59.899Z,99358.45
2019-03-05T23:58:05.074Z,99369.25
